sensor_id;sensor_type;location;lat;lon;timestamp;P1;durP1;ratioP1;P2;durP2;ratioP2
8564;SDS011;4320;51.498;6.556;2022-10-16T00:01:13;5.10;;;3.85;;
8564;SDS011;4320;51.498;6.556;2022-10-16T00:03:40;8.52;;;4.43;;
8564;SDS011;4320;51.498;6.556;2022-10-16T00:06:07;8.13;;;4.35;;
8564;SDS011;4320;51.498;6.556;2022-10-16T00:08:34;4.55;;;3.53;;
8564;SDS011;4320;51.498;6.556;2022-10-16T00:11:04;4.18;;;3.35;;
8564;SDS011;4320;51.498;6.556;2022-10-16T00:13:33;6.22;;;3.60;;
8564;SDS011;4320;51.498;6.556;2022-10-16T00:16:00;8.02;;;3.80;;
8564;SDS011;4320;51.498;6.556;2022-10-16T00:18:27;5.75;;;3.83;;
8564;SDS011;4320;51.498;6.556;2022-10-16T00:20:53;5.50;;;3.90;;
8564;SDS011;4320;51.498;6.556;2022-10-16T00:23:19;4.15;;;3.50;;
8564;SDS011;4320;51.498;6.556;2022-10-16T00:25:45;3.67;;;3.38;;
8564;SDS011;4320;51.498;6.556;2022-10-16T00:28:19;3.25;;;2.92;;
8564;SDS011;4320;51.498;6.556;2022-10-16T00:30:44;5.97;;;3.30;;
8564;SDS011;4320;51.498;6.556;2022-10-16T00:33:10;5.22;;;3.30;;
8564;SDS011;4320;51.498;6.556;2022-10-16T00:35:36;6.93;;;2.78;;
8564;SDS011;4320;51.498;6.556;2022-10-16T00:38:02;4.72;;;3.33;;
8564;SDS011;4320;51.498;6.556;2022-10-16T00:40:27;4.70;;;3.28;;
8564;SDS011;4320;51.498;6.556;2022-10-16T00:42:53;4.50;;;2.97;;
8564;SDS011;4320;51.498;6.556;2022-10-16T00:45:18;4.65;;;3.13;;
8564;SDS011;4320;51.498;6.556;2022-10-16T00:47:44;4.97;;;3.33;;
8564;SDS011;4320;51.498;6.556;2022-10-16T00:50:18;4.90;;;3.50;;
8564;SDS011;4320;51.498;6.556;2022-10-16T00:52:54;5.47;;;3.67;;
8564;SDS011;4320;51.498;6.556;2022-10-16T00:55:22;4.25;;;3.40;;
8564;SDS011;4320;51.498;6.556;2022-10-16T00:57:48;4.60;;;3.08;;
8564;SDS011;4320;51.498;6.556;2022-10-16T01:00:16;5.72;;;3.35;;
8564;SDS011;4320;51.498;6.556;2022-10-16T01:02:52;7.28;;;3.05;;
8564;SDS011;4320;51.498;6.556;2022-10-16T01:05:19;4.03;;;3.05;;
8564;SDS011;4320;51.498;6.556;2022-10-16T01:08:04;5.82;;;3.35;;
8564;SDS011;4320;51.498;6.556;2022-10-16T01:10:38;6.47;;;3.40;;
8564;SDS011;4320;51.498;6.556;2022-10-16T01:13:21;3.10;;;2.80;;
8564;SDS011;4320;51.498;6.556;2022-10-16T01:15:54;5.80;;;3.42;;
8564;SDS011;4320;51.498;6.556;2022-10-16T01:18:34;4.65;;;3.00;;
8564;SDS011;4320;51.498;6.556;2022-10-16T01:21:29;4.93;;;2.83;;
8564;SDS011;4320;51.498;6.556;2022-10-16T01:27:01;6.47;;;3.08;;
8564;SDS011;4320;51.498;6.556;2022-10-16T01:29:49;3.60;;;2.83;;
8564;SDS011;4320;51.498;6.556;2022-10-16T01:32:40;3.45;;;2.53;;
8564;SDS011;4320;51.498;6.556;2022-10-16T01:37:54;3.67;;;2.88;;
8564;SDS011;4320;51.498;6.556;2022-10-16T01:40:36;2.55;;;2.35;;
8564;SDS011;4320;51.498;6.556;2022-10-16T01:43:08;3.58;;;3.17;;
8564;SDS011;4320;51.498;6.556;2022-10-16T01:45:47;5.32;;;2.97;;
8564;SDS011;4320;51.498;6.556;2022-10-16T01:48:14;3.45;;;2.88;;
8564;SDS011;4320;51.498;6.556;2022-10-16T01:50:43;4.10;;;2.70;;
8564;SDS011;4320;51.498;6.556;2022-10-16T01:53:14;4.35;;;2.65;;
8564;SDS011;4320;51.498;6.556;2022-10-16T01:55:44;4.88;;;2.95;;
8564;SDS011;4320;51.498;6.556;2022-10-16T01:58:13;4.18;;;2.72;;
8564;SDS011;4320;51.498;6.556;2022-10-16T02:00:39;4.60;;;2.50;;
8564;SDS011;4320;51.498;6.556;2022-10-16T02:03:08;6.45;;;2.72;;
8564;SDS011;4320;51.498;6.556;2022-10-16T02:05:41;2.92;;;2.20;;
8564;SDS011;4320;51.498;6.556;2022-10-16T02:08:16;3.28;;;2.22;;
8564;SDS011;4320;51.498;6.556;2022-10-16T02:10:42;3.22;;;2.45;;
8564;SDS011;4320;51.498;6.556;2022-10-16T02:13:13;4.45;;;2.35;;
8564;SDS011;4320;51.498;6.556;2022-10-16T02:15:52;2.50;;;2.30;;
8564;SDS011;4320;51.498;6.556;2022-10-16T02:18:17;5.18;;;2.58;;
8564;SDS011;4320;51.498;6.556;2022-10-16T02:20:53;2.92;;;2.05;;
8564;SDS011;4320;51.498;6.556;2022-10-16T02:23:25;3.40;;;2.20;;
8564;SDS011;4320;51.498;6.556;2022-10-16T02:26:13;3.50;;;2.40;;
8564;SDS011;4320;51.498;6.556;2022-10-16T02:28:48;6.13;;;2.10;;
8564;SDS011;4320;51.498;6.556;2022-10-16T02:31:22;3.17;;;2.20;;
8564;SDS011;4320;51.498;6.556;2022-10-16T02:33:55;2.20;;;2.00;;
8564;SDS011;4320;51.498;6.556;2022-10-16T02:36:23;2.20;;;2.00;;
8564;SDS011;4320;51.498;6.556;2022-10-16T02:38:50;2.88;;;2.25;;
8564;SDS011;4320;51.498;6.556;2022-10-16T02:41:16;2.80;;;1.83;;
8564;SDS011;4320;51.498;6.556;2022-10-16T02:43:43;3.88;;;2.08;;
8564;SDS011;4320;51.498;6.556;2022-10-16T02:46:08;4.95;;;2.20;;
8564;SDS011;4320;51.498;6.556;2022-10-16T02:48:34;2.55;;;1.83;;
8564;SDS011;4320;51.498;6.556;2022-10-16T02:51:00;3.85;;;2.05;;
8564;SDS011;4320;51.498;6.556;2022-10-16T02:53:26;1.70;;;1.60;;
8564;SDS011;4320;51.498;6.556;2022-10-16T02:55:52;2.95;;;1.80;;
8564;SDS011;4320;51.498;6.556;2022-10-16T02:58:17;1.70;;;1.60;;
8564;SDS011;4320;51.498;6.556;2022-10-16T03:00:43;3.05;;;2.05;;
8564;SDS011;4320;51.498;6.556;2022-10-16T03:03:08;2.75;;;1.63;;
8564;SDS011;4320;51.498;6.556;2022-10-16T03:05:34;1.70;;;1.60;;
8564;SDS011;4320;51.498;6.556;2022-10-16T03:08:00;2.72;;;1.70;;
8564;SDS011;4320;51.498;6.556;2022-10-16T03:10:26;2.03;;;1.75;;
8564;SDS011;4320;51.498;6.556;2022-10-16T03:12:52;2.58;;;1.63;;
8564;SDS011;4320;51.498;6.556;2022-10-16T03:15:17;2.35;;;1.70;;
8564;SDS011;4320;51.498;6.556;2022-10-16T03:17:43;1.90;;;1.65;;
8564;SDS011;4320;51.498;6.556;2022-10-16T03:20:09;2.50;;;1.65;;
8564;SDS011;4320;51.498;6.556;2022-10-16T03:22:34;2.58;;;1.92;;
8564;SDS011;4320;51.498;6.556;2022-10-16T03:25:00;1.85;;;1.70;;
8564;SDS011;4320;51.498;6.556;2022-10-16T03:27:26;2.03;;;1.45;;
8564;SDS011;4320;51.498;6.556;2022-10-16T03:29:51;3.15;;;1.60;;
8564;SDS011;4320;51.498;6.556;2022-10-16T03:32:17;1.65;;;1.30;;
8564;SDS011;4320;51.498;6.556;2022-10-16T03:34:43;1.95;;;1.70;;
8564;SDS011;4320;51.498;6.556;2022-10-16T03:37:09;3.60;;;1.60;;
8564;SDS011;4320;51.498;6.556;2022-10-16T03:39:35;4.40;;;1.80;;
8564;SDS011;4320;51.498;6.556;2022-10-16T03:42:00;2.67;;;1.50;;
8564;SDS011;4320;51.498;6.556;2022-10-16T03:44:26;1.73;;;1.60;;
8564;SDS011;4320;51.498;6.556;2022-10-16T03:46:52;1.98;;;1.75;;
8564;SDS011;4320;51.498;6.556;2022-10-16T03:49:17;3.15;;;1.50;;
8564;SDS011;4320;51.498;6.556;2022-10-16T03:51:43;1.50;;;1.40;;
8564;SDS011;4320;51.498;6.556;2022-10-16T03:54:09;6.43;;;2.47;;
8564;SDS011;4320;51.498;6.556;2022-10-16T03:56:35;1.75;;;1.27;;
8564;SDS011;4320;51.498;6.556;2022-10-16T03:59:01;1.40;;;1.30;;
8564;SDS011;4320;51.498;6.556;2022-10-16T04:01:26;4.25;;;1.70;;
8564;SDS011;4320;51.498;6.556;2022-10-16T04:03:52;1.33;;;1.25;;
8564;SDS011;4320;51.498;6.556;2022-10-16T04:06:17;2.25;;;1.67;;
8564;SDS011;4320;51.498;6.556;2022-10-16T04:08:43;2.38;;;1.20;;
8564;SDS011;4320;51.498;6.556;2022-10-16T04:11:09;1.58;;;1.48;;
8564;SDS011;4320;51.498;6.556;2022-10-16T04:13:35;1.90;;;1.60;;
8564;SDS011;4320;51.498;6.556;2022-10-16T04:16:01;2.40;;;1.65;;
8564;SDS011;4320;51.498;6.556;2022-10-16T04:18:27;1.90;;;1.70;;
8564;SDS011;4320;51.498;6.556;2022-10-16T04:20:53;3.40;;;2.42;;
8564;SDS011;4320;51.498;6.556;2022-10-16T04:23:19;2.42;;;2.00;;
8564;SDS011;4320;51.498;6.556;2022-10-16T04:25:44;3.45;;;2.70;;
8564;SDS011;4320;51.498;6.556;2022-10-16T04:28:10;5.22;;;2.80;;
8564;SDS011;4320;51.498;6.556;2022-10-16T04:30:37;3.20;;;2.42;;
8564;SDS011;4320;51.498;6.556;2022-10-16T04:33:03;3.42;;;2.22;;
8564;SDS011;4320;51.498;6.556;2022-10-16T04:35:29;2.75;;;2.13;;
8564;SDS011;4320;51.498;6.556;2022-10-16T04:37:56;1.85;;;1.55;;
8564;SDS011;4320;51.498;6.556;2022-10-16T04:40:23;3.25;;;2.13;;
8564;SDS011;4320;51.498;6.556;2022-10-16T04:42:48;2.20;;;1.85;;
8564;SDS011;4320;51.498;6.556;2022-10-16T04:45:14;2.10;;;1.70;;
8564;SDS011;4320;51.498;6.556;2022-10-16T04:47:40;1.60;;;1.50;;
8564;SDS011;4320;51.498;6.556;2022-10-16T04:50:06;1.45;;;1.35;;
8564;SDS011;4320;51.498;6.556;2022-10-16T04:52:32;2.42;;;1.30;;
8564;SDS011;4320;51.498;6.556;2022-10-16T04:54:57;1.30;;;1.20;;
8564;SDS011;4320;51.498;6.556;2022-10-16T04:57:26;2.03;;;1.33;;
8564;SDS011;4320;51.498;6.556;2022-10-16T04:59:52;1.35;;;1.25;;
8564;SDS011;4320;51.498;6.556;2022-10-16T05:02:18;2.28;;;1.58;;
8564;SDS011;4320;51.498;6.556;2022-10-16T05:04:43;2.55;;;1.50;;
8564;SDS011;4320;51.498;6.556;2022-10-16T05:07:09;2.88;;;1.30;;
8564;SDS011;4320;51.498;6.556;2022-10-16T05:09:34;3.83;;;1.50;;
8564;SDS011;4320;51.498;6.556;2022-10-16T05:12:00;1.88;;;1.33;;
8564;SDS011;4320;51.498;6.556;2022-10-16T05:14:26;3.70;;;1.48;;
8564;SDS011;4320;51.498;6.556;2022-10-16T05:16:51;2.05;;;1.63;;
8564;SDS011;4320;51.498;6.556;2022-10-16T05:19:17;2.10;;;1.70;;
8564;SDS011;4320;51.498;6.556;2022-10-16T05:21:43;3.63;;;1.88;;
8564;SDS011;4320;51.498;6.556;2022-10-16T05:24:08;5.90;;;2.35;;
8564;SDS011;4320;51.498;6.556;2022-10-16T05:26:34;4.40;;;2.38;;
8564;SDS011;4320;51.498;6.556;2022-10-16T05:29:00;5.18;;;2.17;;
8564;SDS011;4320;51.498;6.556;2022-10-16T05:31:25;2.60;;;1.85;;
8564;SDS011;4320;51.498;6.556;2022-10-16T05:33:51;4.28;;;2.17;;
8564;SDS011;4320;51.498;6.556;2022-10-16T05:36:17;2.28;;;1.70;;
8564;SDS011;4320;51.498;6.556;2022-10-16T05:38:43;1.70;;;1.60;;
8564;SDS011;4320;51.498;6.556;2022-10-16T05:41:08;2.08;;;1.75;;
8564;SDS011;4320;51.498;6.556;2022-10-16T05:43:34;2.70;;;2.00;;
8564;SDS011;4320;51.498;6.556;2022-10-16T05:46:02;1.85;;;1.75;;
8564;SDS011;4320;51.498;6.556;2022-10-16T05:48:29;2.13;;;1.92;;
8564;SDS011;4320;51.498;6.556;2022-10-16T05:50:56;2.35;;;1.85;;
8564;SDS011;4320;51.498;6.556;2022-10-16T05:53:29;2.15;;;1.95;;
8564;SDS011;4320;51.498;6.556;2022-10-16T05:55:56;2.25;;;1.67;;
8564;SDS011;4320;51.498;6.556;2022-10-16T05:58:22;2.15;;;1.65;;
8564;SDS011;4320;51.498;6.556;2022-10-16T06:00:56;2.00;;;1.83;;
8564;SDS011;4320;51.498;6.556;2022-10-16T06:03:22;1.88;;;1.60;;
8564;SDS011;4320;51.498;6.556;2022-10-16T06:05:48;2.55;;;1.70;;
8564;SDS011;4320;51.498;6.556;2022-10-16T06:08:14;4.38;;;1.73;;
8564;SDS011;4320;51.498;6.556;2022-10-16T06:10:41;2.95;;;2.00;;
8564;SDS011;4320;51.498;6.556;2022-10-16T06:13:06;2.15;;;1.80;;
8564;SDS011;4320;51.498;6.556;2022-10-16T06:15:32;1.88;;;1.60;;
8564;SDS011;4320;51.498;6.556;2022-10-16T06:17:58;1.80;;;1.70;;
8564;SDS011;4320;51.498;6.556;2022-10-16T06:20:23;2.63;;;1.80;;
8564;SDS011;4320;51.498;6.556;2022-10-16T06:22:49;1.98;;;1.67;;
8564;SDS011;4320;51.498;6.556;2022-10-16T06:25:14;1.85;;;1.70;;
8564;SDS011;4320;51.498;6.556;2022-10-16T06:27:40;2.15;;;1.45;;
8564;SDS011;4320;51.498;6.556;2022-10-16T06:30:06;5.95;;;1.98;;
8564;SDS011;4320;51.498;6.556;2022-10-16T06:32:32;2.40;;;1.88;;
8564;SDS011;4320;51.498;6.556;2022-10-16T06:34:58;2.95;;;1.80;;
8564;SDS011;4320;51.498;6.556;2022-10-16T06:37:24;1.73;;;1.63;;
8564;SDS011;4320;51.498;6.556;2022-10-16T06:39:50;2.60;;;1.90;;
8564;SDS011;4320;51.498;6.556;2022-10-16T06:42:18;3.17;;;1.90;;
8564;SDS011;4320;51.498;6.556;2022-10-16T06:44:44;2.17;;;1.98;;
8564;SDS011;4320;51.498;6.556;2022-10-16T06:47:10;3.10;;;1.85;;
8564;SDS011;4320;51.498;6.556;2022-10-16T06:49:36;2.85;;;2.30;;
8564;SDS011;4320;51.498;6.556;2022-10-16T06:52:01;4.82;;;2.97;;
8564;SDS011;4320;51.498;6.556;2022-10-16T06:54:27;5.90;;;3.28;;
8564;SDS011;4320;51.498;6.556;2022-10-16T06:56:54;5.88;;;3.55;;
8564;SDS011;4320;51.498;6.556;2022-10-16T06:59:20;5.07;;;3.25;;
8564;SDS011;4320;51.498;6.556;2022-10-16T07:01:46;4.05;;;3.20;;
8564;SDS011;4320;51.498;6.556;2022-10-16T07:04:12;4.03;;;3.00;;
8564;SDS011;4320;51.498;6.556;2022-10-16T07:06:38;4.28;;;3.08;;
8564;SDS011;4320;51.498;6.556;2022-10-16T07:09:04;3.58;;;3.20;;
8564;SDS011;4320;51.498;6.556;2022-10-16T07:11:32;5.53;;;3.60;;
8564;SDS011;4320;51.498;6.556;2022-10-16T07:13:58;5.00;;;3.58;;
8564;SDS011;4320;51.498;6.556;2022-10-16T07:16:25;4.82;;;3.10;;
8564;SDS011;4320;51.498;6.556;2022-10-16T07:18:53;8.65;;;6.90;;
8564;SDS011;4320;51.498;6.556;2022-10-16T07:21:24;3.42;;;2.95;;
8564;SDS011;4320;51.498;6.556;2022-10-16T07:23:52;3.85;;;3.03;;
8564;SDS011;4320;51.498;6.556;2022-10-16T07:26:18;3.53;;;3.22;;
8564;SDS011;4320;51.498;6.556;2022-10-16T07:28:44;7.32;;;3.20;;
8564;SDS011;4320;51.498;6.556;2022-10-16T07:31:11;4.68;;;2.92;;
8564;SDS011;4320;51.498;6.556;2022-10-16T07:33:41;6.35;;;3.58;;
8564;SDS011;4320;51.498;6.556;2022-10-16T07:36:09;4.20;;;2.88;;
8564;SDS011;4320;51.498;6.556;2022-10-16T07:38:35;6.63;;;3.95;;
8564;SDS011;4320;51.498;6.556;2022-10-16T07:41:05;4.70;;;3.55;;
8564;SDS011;4320;51.498;6.556;2022-10-16T07:43:32;6.47;;;3.97;;
8564;SDS011;4320;51.498;6.556;2022-10-16T07:45:58;5.55;;;3.80;;
8564;SDS011;4320;51.498;6.556;2022-10-16T07:48:26;5.63;;;3.65;;
8564;SDS011;4320;51.498;6.556;2022-10-16T07:50:56;4.60;;;3.15;;
8564;SDS011;4320;51.498;6.556;2022-10-16T07:53:25;3.58;;;2.53;;
8564;SDS011;4320;51.498;6.556;2022-10-16T07:55:52;2.95;;;2.65;;
8564;SDS011;4320;51.498;6.556;2022-10-16T07:58:21;3.88;;;2.15;;
8564;SDS011;4320;51.498;6.556;2022-10-16T08:00:47;2.42;;;2.22;;
8564;SDS011;4320;51.498;6.556;2022-10-16T08:03:12;3.38;;;2.22;;
8564;SDS011;4320;51.498;6.556;2022-10-16T08:05:38;2.13;;;1.70;;
8564;SDS011;4320;51.498;6.556;2022-10-16T08:08:04;1.63;;;1.45;;
8564;SDS011;4320;51.498;6.556;2022-10-16T08:10:29;3.58;;;1.60;;
8564;SDS011;4320;51.498;6.556;2022-10-16T08:12:56;3.10;;;1.58;;
8564;SDS011;4320;51.498;6.556;2022-10-16T08:15:22;2.35;;;1.50;;
8564;SDS011;4320;51.498;6.556;2022-10-16T08:17:58;1.70;;;1.50;;
8564;SDS011;4320;51.498;6.556;2022-10-16T08:20:27;2.60;;;1.42;;
8564;SDS011;4320;51.498;6.556;2022-10-16T08:22:54;1.88;;;1.42;;
8564;SDS011;4320;51.498;6.556;2022-10-16T08:25:21;3.10;;;1.67;;
8564;SDS011;4320;51.498;6.556;2022-10-16T08:27:47;2.35;;;1.40;;
8564;SDS011;4320;51.498;6.556;2022-10-16T08:30:13;3.13;;;1.55;;
8564;SDS011;4320;51.498;6.556;2022-10-16T08:32:40;3.22;;;1.50;;
8564;SDS011;4320;51.498;6.556;2022-10-16T08:35:07;2.67;;;1.35;;
8564;SDS011;4320;51.498;6.556;2022-10-16T08:37:37;3.95;;;1.58;;
8564;SDS011;4320;51.498;6.556;2022-10-16T08:40:04;4.55;;;1.95;;
8564;SDS011;4320;51.498;6.556;2022-10-16T08:50:49;2.42;;;1.42;;
8564;SDS011;4320;51.498;6.556;2022-10-16T08:53:24;1.40;;;1.20;;
8564;SDS011;4320;51.498;6.556;2022-10-16T08:55:55;5.05;;;2.00;;
8564;SDS011;4320;51.498;6.556;2022-10-16T08:58:21;1.88;;;1.35;;
8564;SDS011;4320;51.498;6.556;2022-10-16T09:00:55;2.05;;;1.65;;
8564;SDS011;4320;51.498;6.556;2022-10-16T09:11:46;3.92;;;1.50;;
8564;SDS011;4320;51.498;6.556;2022-10-16T09:14:35;2.22;;;1.30;;
8564;SDS011;4320;51.498;6.556;2022-10-16T09:17:42;2.78;;;1.58;;
8564;SDS011;4320;51.498;6.556;2022-10-16T09:20:36;1.95;;;1.30;;
8564;SDS011;4320;51.498;6.556;2022-10-16T09:23:18;2.55;;;1.42;;
8564;SDS011;4320;51.498;6.556;2022-10-16T09:25:48;2.10;;;1.33;;
8564;SDS011;4320;51.498;6.556;2022-10-16T09:28:15;5.63;;;1.27;;
8564;SDS011;4320;51.498;6.556;2022-10-16T09:30:42;3.83;;;1.13;;
8564;SDS011;4320;51.498;6.556;2022-10-16T09:33:09;2.03;;;1.20;;
8564;SDS011;4320;51.498;6.556;2022-10-16T09:35:40;2.38;;;1.40;;
8564;SDS011;4320;51.498;6.556;2022-10-16T09:38:22;2.72;;;1.38;;
8564;SDS011;4320;51.498;6.556;2022-10-16T09:41:14;1.50;;;1.02;;
8564;SDS011;4320;51.498;6.556;2022-10-16T09:46:33;4.35;;;1.35;;
8564;SDS011;4320;51.498;6.556;2022-10-16T09:49:02;2.72;;;1.38;;
8564;SDS011;4320;51.498;6.556;2022-10-16T09:51:45;1.70;;;1.33;;
8564;SDS011;4320;51.498;6.556;2022-10-16T09:54:15;2.88;;;1.35;;
8564;SDS011;4320;51.498;6.556;2022-10-16T09:56:42;1.45;;;1.17;;
8564;SDS011;4320;51.498;6.556;2022-10-16T10:01:39;1.75;;;1.27;;
8564;SDS011;4320;51.498;6.556;2022-10-16T10:04:10;3.17;;;1.20;;
8564;SDS011;4320;51.498;6.556;2022-10-16T10:06:37;2.97;;;1.48;;
8564;SDS011;4320;51.498;6.556;2022-10-16T10:09:17;1.70;;;1.05;;
8564;SDS011;4320;51.498;6.556;2022-10-16T10:11:57;3.13;;;2.03;;
8564;SDS011;4320;51.498;6.556;2022-10-16T10:19:36;1.58;;;1.25;;
8564;SDS011;4320;51.498;6.556;2022-10-16T10:27:45;4.10;;;1.35;;
8564;SDS011;4320;51.498;6.556;2022-10-16T10:36:12;3.67;;;1.30;;
8564;SDS011;4320;51.498;6.556;2022-10-16T10:39:04;8.55;;;1.50;;
8564;SDS011;4320;51.498;6.556;2022-10-16T10:41:51;2.58;;;1.20;;
8564;SDS011;4320;51.498;6.556;2022-10-16T10:46:54;3.25;;;1.40;;
8564;SDS011;4320;51.498;6.556;2022-10-16T10:57:41;1.42;;;1.30;;
8564;SDS011;4320;51.498;6.556;2022-10-16T11:03:04;2.55;;;1.25;;
8564;SDS011;4320;51.498;6.556;2022-10-16T11:05:53;2.30;;;1.25;;
8564;SDS011;4320;51.498;6.556;2022-10-16T11:08:29;3.28;;;1.40;;
8564;SDS011;4320;51.498;6.556;2022-10-16T11:11:01;2.10;;;1.08;;
8564;SDS011;4320;51.498;6.556;2022-10-16T11:16:34;2.22;;;1.20;;
8564;SDS011;4320;51.498;6.556;2022-10-16T11:19:51;2.35;;;1.40;;
8564;SDS011;4320;51.498;6.556;2022-10-16T11:27:50;2.15;;;1.52;;
8564;SDS011;4320;51.498;6.556;2022-10-16T11:30:18;3.53;;;1.20;;
8564;SDS011;4320;51.498;6.556;2022-10-16T11:41:00;2.60;;;1.10;;
8564;SDS011;4320;51.498;6.556;2022-10-16T11:43:43;3.70;;;1.45;;
8564;SDS011;4320;51.498;6.556;2022-10-16T11:46:19;3.63;;;1.00;;
8564;SDS011;4320;51.498;6.556;2022-10-16T11:49:11;3.60;;;1.40;;
8564;SDS011;4320;51.498;6.556;2022-10-16T11:51:45;1.83;;;1.30;;
8564;SDS011;4320;51.498;6.556;2022-10-16T11:57:16;1.17;;;1.08;;
8564;SDS011;4320;51.498;6.556;2022-10-16T11:59:51;3.05;;;1.20;;
8564;SDS011;4320;51.498;6.556;2022-10-16T12:02:33;2.85;;;1.33;;
8564;SDS011;4320;51.498;6.556;2022-10-16T12:05:18;2.40;;;1.20;;
8564;SDS011;4320;51.498;6.556;2022-10-16T12:08:09;3.10;;;1.30;;
8564;SDS011;4320;51.498;6.556;2022-10-16T12:10:40;2.88;;;1.13;;
8564;SDS011;4320;51.498;6.556;2022-10-16T12:18:43;2.88;;;1.30;;
8564;SDS011;4320;51.498;6.556;2022-10-16T12:21:11;2.17;;;1.40;;
8564;SDS011;4320;51.498;6.556;2022-10-16T12:23:50;3.03;;;1.30;;
8564;SDS011;4320;51.498;6.556;2022-10-16T12:26:36;3.00;;;1.20;;
8564;SDS011;4320;51.498;6.556;2022-10-16T12:32:22;3.97;;;1.30;;
8564;SDS011;4320;51.498;6.556;2022-10-16T12:34:57;2.40;;;1.25;;
8564;SDS011;4320;51.498;6.556;2022-10-16T12:37:24;4.05;;;1.25;;
8564;SDS011;4320;51.498;6.556;2022-10-16T12:39:58;3.42;;;1.30;;
8564;SDS011;4320;51.498;6.556;2022-10-16T12:42:35;1.95;;;1.10;;
8564;SDS011;4320;51.498;6.556;2022-10-16T12:45:01;1.75;;;1.25;;
8564;SDS011;4320;51.498;6.556;2022-10-16T12:47:53;3.58;;;1.20;;
8564;SDS011;4320;51.498;6.556;2022-10-16T12:50:27;3.70;;;1.30;;
8564;SDS011;4320;51.498;6.556;2022-10-16T12:53:04;2.65;;;1.27;;
8564;SDS011;4320;51.498;6.556;2022-10-16T13:04:27;1.63;;;1.10;;
8564;SDS011;4320;51.498;6.556;2022-10-16T13:10:00;4.15;;;1.40;;
8564;SDS011;4320;51.498;6.556;2022-10-16T13:12:37;3.58;;;1.60;;
8564;SDS011;4320;51.498;6.556;2022-10-16T13:29:21;2.92;;;1.33;;
8564;SDS011;4320;51.498;6.556;2022-10-16T13:31:47;1.95;;;1.50;;
8564;SDS011;4320;51.498;6.556;2022-10-16T13:34:20;3.25;;;2.00;;
8564;SDS011;4320;51.498;6.556;2022-10-16T13:36:51;2.60;;;1.45;;
8564;SDS011;4320;51.498;6.556;2022-10-16T13:39:29;2.33;;;1.40;;
8564;SDS011;4320;51.498;6.556;2022-10-16T13:42:15;3.40;;;1.40;;
8564;SDS011;4320;51.498;6.556;2022-10-16T13:44:53;1.58;;;1.20;;
8564;SDS011;4320;51.498;6.556;2022-10-16T13:47:21;4.15;;;1.27;;
8564;SDS011;4320;51.498;6.556;2022-10-16T13:52:36;3.15;;;1.17;;
8564;SDS011;4320;51.498;6.556;2022-10-16T13:55:03;4.07;;;1.10;;
8564;SDS011;4320;51.498;6.556;2022-10-16T13:57:35;7.38;;;1.20;;
8564;SDS011;4320;51.498;6.556;2022-10-16T14:00:00;2.03;;;1.30;;
8564;SDS011;4320;51.498;6.556;2022-10-16T14:02:27;3.90;;;1.80;;
8564;SDS011;4320;51.498;6.556;2022-10-16T14:05:03;2.72;;;1.20;;
8564;SDS011;4320;51.498;6.556;2022-10-16T14:07:33;1.33;;;1.00;;
8564;SDS011;4320;51.498;6.556;2022-10-16T14:10:04;1.60;;;1.05;;
8564;SDS011;4320;51.498;6.556;2022-10-16T14:12:32;2.60;;;1.13;;
8564;SDS011;4320;51.498;6.556;2022-10-16T14:14:58;4.03;;;1.17;;
8564;SDS011;4320;51.498;6.556;2022-10-16T14:17:32;2.00;;;1.02;;
8564;SDS011;4320;51.498;6.556;2022-10-16T14:20:01;1.10;;;1.00;;
8564;SDS011;4320;51.498;6.556;2022-10-16T14:22:31;1.15;;;1.02;;
8564;SDS011;4320;51.498;6.556;2022-10-16T14:24:59;4.50;;;1.20;;
8564;SDS011;4320;51.498;6.556;2022-10-16T14:30:03;1.30;;;1.10;;
8564;SDS011;4320;51.498;6.556;2022-10-16T14:32:42;2.90;;;1.40;;
8564;SDS011;4320;51.498;6.556;2022-10-16T14:35:35;2.33;;;1.00;;
8564;SDS011;4320;51.498;6.556;2022-10-16T14:38:04;4.85;;;1.25;;
8564;SDS011;4320;51.498;6.556;2022-10-16T14:40:45;3.25;;;1.33;;
8564;SDS011;4320;51.498;6.556;2022-10-16T14:43:20;4.65;;;1.63;;
8564;SDS011;4320;51.498;6.556;2022-10-16T14:45:54;2.78;;;1.20;;
8564;SDS011;4320;51.498;6.556;2022-10-16T14:48:21;2.22;;;1.35;;
8564;SDS011;4320;51.498;6.556;2022-10-16T14:50:47;2.88;;;1.55;;
8564;SDS011;4320;51.498;6.556;2022-10-16T14:53:13;2.75;;;1.77;;
8564;SDS011;4320;51.498;6.556;2022-10-16T14:55:40;1.95;;;1.52;;
8564;SDS011;4320;51.498;6.556;2022-10-16T14:58:16;3.03;;;1.58;;
8564;SDS011;4320;51.498;6.556;2022-10-16T15:00:44;1.33;;;1.20;;
8564;SDS011;4320;51.498;6.556;2022-10-16T15:03:10;3.15;;;1.35;;
8564;SDS011;4320;51.498;6.556;2022-10-16T15:05:36;2.47;;;1.20;;
8564;SDS011;4320;51.498;6.556;2022-10-16T15:08:02;2.90;;;1.50;;
8564;SDS011;4320;51.498;6.556;2022-10-16T15:10:29;1.75;;;1.45;;
8564;SDS011;4320;51.498;6.556;2022-10-16T15:12:56;3.90;;;1.70;;
8564;SDS011;4320;51.498;6.556;2022-10-16T15:17:48;5.78;;;1.58;;
8564;SDS011;4320;51.498;6.556;2022-10-16T15:20:32;5.28;;;1.45;;
8564;SDS011;4320;51.498;6.556;2022-10-16T15:23:21;2.25;;;1.33;;
8564;SDS011;4320;51.498;6.556;2022-10-16T15:25:53;2.75;;;1.45;;
8564;SDS011;4320;51.498;6.556;2022-10-16T15:28:20;6.47;;;1.58;;
8564;SDS011;4320;51.498;6.556;2022-10-16T15:30:48;3.10;;;1.50;;
8564;SDS011;4320;51.498;6.556;2022-10-16T15:33:16;3.05;;;1.30;;
8564;SDS011;4320;51.498;6.556;2022-10-16T15:35:47;2.60;;;1.33;;
8564;SDS011;4320;51.498;6.556;2022-10-16T15:38:16;3.70;;;1.48;;
8564;SDS011;4320;51.498;6.556;2022-10-16T15:40:43;2.67;;;1.50;;
8564;SDS011;4320;51.498;6.556;2022-10-16T15:43:10;2.70;;;1.48;;
8564;SDS011;4320;51.498;6.556;2022-10-16T15:45:36;2.05;;;1.52;;
8564;SDS011;4320;51.498;6.556;2022-10-16T15:48:02;1.58;;;1.23;;
8564;SDS011;4320;51.498;6.556;2022-10-16T15:50:28;1.73;;;1.52;;
8564;SDS011;4320;51.498;6.556;2022-10-16T15:52:56;3.47;;;1.38;;
8564;SDS011;4320;51.498;6.556;2022-10-16T15:55:21;4.60;;;1.55;;
8564;SDS011;4320;51.498;6.556;2022-10-16T15:57:47;4.18;;;1.58;;
8564;SDS011;4320;51.498;6.556;2022-10-16T16:00:14;3.83;;;1.80;;
8564;SDS011;4320;51.498;6.556;2022-10-16T16:02:42;2.15;;;1.38;;
8564;SDS011;4320;51.498;6.556;2022-10-16T16:05:09;3.03;;;1.58;;
8564;SDS011;4320;51.498;6.556;2022-10-16T16:07:36;6.07;;;2.13;;
8564;SDS011;4320;51.498;6.556;2022-10-16T16:10:04;5.18;;;1.95;;
8564;SDS011;4320;51.498;6.556;2022-10-16T16:12:31;2.92;;;1.75;;
8564;SDS011;4320;51.498;6.556;2022-10-16T16:14:57;3.03;;;1.85;;
8564;SDS011;4320;51.498;6.556;2022-10-16T16:17:23;6.50;;;2.15;;
8564;SDS011;4320;51.498;6.556;2022-10-16T16:19:49;4.60;;;2.22;;
8564;SDS011;4320;51.498;6.556;2022-10-16T16:22:15;4.15;;;2.30;;
8564;SDS011;4320;51.498;6.556;2022-10-16T16:24:40;6.82;;;2.88;;
8564;SDS011;4320;51.498;6.556;2022-10-16T16:27:06;5.20;;;3.30;;
8564;SDS011;4320;51.498;6.556;2022-10-16T16:29:32;6.55;;;3.30;;
8564;SDS011;4320;51.498;6.556;2022-10-16T16:31:58;6.47;;;3.13;;
8564;SDS011;4320;51.498;6.556;2022-10-16T16:34:25;4.90;;;3.03;;
8564;SDS011;4320;51.498;6.556;2022-10-16T16:36:52;6.80;;;3.10;;
8564;SDS011;4320;51.498;6.556;2022-10-16T16:39:18;19.63;;;10.20;;
8564;SDS011;4320;51.498;6.556;2022-10-16T16:41:44;11.52;;;6.15;;
8564;SDS011;4320;51.498;6.556;2022-10-16T16:44:13;8.60;;;5.07;;
8564;SDS011;4320;51.498;6.556;2022-10-16T16:46:39;10.35;;;5.53;;
8564;SDS011;4320;51.498;6.556;2022-10-16T16:49:08;11.50;;;4.35;;
8564;SDS011;4320;51.498;6.556;2022-10-16T16:51:35;5.80;;;3.70;;
8564;SDS011;4320;51.498;6.556;2022-10-16T16:54:01;5.30;;;3.30;;
8564;SDS011;4320;51.498;6.556;2022-10-16T16:56:27;6.97;;;2.75;;
8564;SDS011;4320;51.498;6.556;2022-10-16T16:58:53;4.30;;;3.00;;
8564;SDS011;4320;51.498;6.556;2022-10-16T17:01:21;4.30;;;3.05;;
8564;SDS011;4320;51.498;6.556;2022-10-16T17:03:49;4.45;;;2.70;;
8564;SDS011;4320;51.498;6.556;2022-10-16T17:06:17;5.13;;;2.80;;
8564;SDS011;4320;51.498;6.556;2022-10-16T17:08:43;5.40;;;4.00;;
8564;SDS011;4320;51.498;6.556;2022-10-16T17:11:13;5.35;;;3.78;;
8564;SDS011;4320;51.498;6.556;2022-10-16T17:13:41;6.07;;;3.50;;
8564;SDS011;4320;51.498;6.556;2022-10-16T17:16:06;4.50;;;2.85;;
8564;SDS011;4320;51.498;6.556;2022-10-16T17:18:33;4.68;;;2.65;;
8564;SDS011;4320;51.498;6.556;2022-10-16T17:20:59;4.60;;;2.20;;
8564;SDS011;4320;51.498;6.556;2022-10-16T17:23:25;5.18;;;2.00;;
8564;SDS011;4320;51.498;6.556;2022-10-16T17:25:52;4.50;;;2.03;;
8564;SDS011;4320;51.498;6.556;2022-10-16T17:28:18;4.47;;;2.08;;
8564;SDS011;4320;51.498;6.556;2022-10-16T17:30:43;6.53;;;2.10;;